sensor_id;sensor_type;location;lat;lon;timestamp;temperature;humidity
44671;DHT22;48397;53.016;-2.260;2023-07-22T00:00:21;13.30;99.90
44671;DHT22;48397;53.016;-2.260;2023-07-22T00:02:50;13.30;99.90
44671;DHT22;48397;53.016;-2.260;2023-07-22T00:05:18;13.30;99.90
44671;DHT22;48397;53.016;-2.260;2023-07-22T00:07:50;13.20;99.90
44671;DHT22;48397;53.016;-2.260;2023-07-22T00:10:18;13.20;99.90
44671;DHT22;48397;53.016;-2.260;2023-07-22T00:12:47;13.30;99.90
44671;DHT22;48397;53.016;-2.260;2023-07-22T00:15:14;13.30;99.90
44671;DHT22;48397;53.016;-2.260;2023-07-22T00:17:42;13.20;99.90
44671;DHT22;48397;53.016;-2.260;2023-07-22T00:20:11;13.20;99.90
44671;DHT22;48397;53.016;-2.260;2023-07-22T00:22:39;13.30;99.90
44671;DHT22;48397;53.016;-2.260;2023-07-22T00:25:10;13.30;99.90
44671;DHT22;48397;53.016;-2.260;2023-07-22T00:27:41;13.30;99.90
44671;DHT22;48397;53.016;-2.260;2023-07-22T00:30:09;13.30;99.90
44671;DHT22;48397;53.016;-2.260;2023-07-22T00:32:38;13.30;99.90
44671;DHT22;48397;53.016;-2.260;2023-07-22T00:35:07;13.30;99.90
44671;DHT22;48397;53.016;-2.260;2023-07-22T00:37:37;13.30;99.90
44671;DHT22;48397;53.016;-2.260;2023-07-22T00:42:33;13.30;99.90
44671;DHT22;48397;53.016;-2.260;2023-07-22T00:47:29;13.30;99.90
44671;DHT22;48397;53.016;-2.260;2023-07-22T00:49:57;13.30;99.90
44671;DHT22;48397;53.016;-2.260;2023-07-22T00:52:25;13.30;99.90
44671;DHT22;48397;53.016;-2.260;2023-07-22T00:54:53;13.30;99.90
44671;DHT22;48397;53.016;-2.260;2023-07-22T00:57:22;13.30;99.90
44671;DHT22;48397;53.016;-2.260;2023-07-22T00:59:50;13.30;99.90
44671;DHT22;48397;53.016;-2.260;2023-07-22T01:02:18;13.30;99.90
44671;DHT22;48397;53.016;-2.260;2023-07-22T01:04:46;13.40;99.90
44671;DHT22;48397;53.016;-2.260;2023-07-22T01:07:14;13.30;99.90
44671;DHT22;48397;53.016;-2.260;2023-07-22T01:09:44;13.30;99.90
44671;DHT22;48397;53.016;-2.260;2023-07-22T01:12:12;13.30;99.90
44671;DHT22;48397;53.016;-2.260;2023-07-22T01:14:41;13.30;99.90
44671;DHT22;48397;53.016;-2.260;2023-07-22T01:17:10;13.30;99.90
44671;DHT22;48397;53.016;-2.260;2023-07-22T01:19:39;13.20;99.90
44671;DHT22;48397;53.016;-2.260;2023-07-22T01:22:07;13.20;99.90
44671;DHT22;48397;53.016;-2.260;2023-07-22T01:24:38;13.20;99.90
44671;DHT22;48397;53.016;-2.260;2023-07-22T01:27:07;13.20;99.90
44671;DHT22;48397;53.016;-2.260;2023-07-22T01:29:37;13.20;99.90
44671;DHT22;48397;53.016;-2.260;2023-07-22T01:32:05;13.20;99.90
44671;DHT22;48397;53.016;-2.260;2023-07-22T01:34:33;13.20;99.90
44671;DHT22;48397;53.016;-2.260;2023-07-22T01:37:01;13.20;99.90
44671;DHT22;48397;53.016;-2.260;2023-07-22T01:39:29;13.20;99.90
44671;DHT22;48397;53.016;-2.260;2023-07-22T01:41:57;13.20;99.90
44671;DHT22;48397;53.016;-2.260;2023-07-22T01:44:25;13.20;99.90
44671;DHT22;48397;53.016;-2.260;2023-07-22T01:46:53;13.20;99.90
44671;DHT22;48397;53.016;-2.260;2023-07-22T01:49:21;13.20;99.90
44671;DHT22;48397;53.016;-2.260;2023-07-22T01:51:49;13.30;99.90
44671;DHT22;48397;53.016;-2.260;2023-07-22T01:54:17;13.20;99.90
44671;DHT22;48397;53.016;-2.260;2023-07-22T01:56:45;13.30;99.90
44671;DHT22;48397;53.016;-2.260;2023-07-22T01:59:13;13.20;99.90
44671;DHT22;48397;53.016;-2.260;2023-07-22T02:01:41;13.20;99.90
44671;DHT22;48397;53.016;-2.260;2023-07-22T02:04:09;13.30;99.90
44671;DHT22;48397;53.016;-2.260;2023-07-22T02:06:38;13.30;99.90
44671;DHT22;48397;53.016;-2.260;2023-07-22T02:09:06;13.30;99.90
44671;DHT22;48397;53.016;-2.260;2023-07-22T02:11:36;13.30;99.90
44671;DHT22;48397;53.016;-2.260;2023-07-22T02:14:04;13.20;99.90
44671;DHT22;48397;53.016;-2.260;2023-07-22T02:16:35;13.30;99.90
44671;DHT22;48397;53.016;-2.260;2023-07-22T02:19:05;13.30;99.90
44671;DHT22;48397;53.016;-2.260;2023-07-22T02:21:40;13.30;99.90
44671;DHT22;48397;53.016;-2.260;2023-07-22T02:24:08;13.30;99.90
44671;DHT22;48397;53.016;-2.260;2023-07-22T02:26:36;13.30;99.90
44671;DHT22;48397;53.016;-2.260;2023-07-22T02:29:04;13.20;99.90
44671;DHT22;48397;53.016;-2.260;2023-07-22T02:31:31;13.20;99.90
44671;DHT22;48397;53.016;-2.260;2023-07-22T02:33:59;13.20;99.90
44671;DHT22;48397;53.016;-2.260;2023-07-22T02:36:28;13.20;99.90
44671;DHT22;48397;53.016;-2.260;2023-07-22T02:38:56;13.10;99.90
44671;DHT22;48397;53.016;-2.260;2023-07-22T02:41:24;13.20;99.90
44671;DHT22;48397;53.016;-2.260;2023-07-22T02:43:52;13.10;99.90
44671;DHT22;48397;53.016;-2.260;2023-07-22T02:46:20;13.10;99.90
44671;DHT22;48397;53.016;-2.260;2023-07-22T02:48:48;13.10;99.90
44671;DHT22;48397;53.016;-2.260;2023-07-22T02:53:44;13.10;99.90
44671;DHT22;48397;53.016;-2.260;2023-07-22T02:56:14;13.10;99.90
44671;DHT22;48397;53.016;-2.260;2023-07-22T02:58:42;13.10;99.90
44671;DHT22;48397;53.016;-2.260;2023-07-22T03:01:10;13.10;99.90
44671;DHT22;48397;53.016;-2.260;2023-07-22T03:03:39;13.10;99.90
44671;DHT22;48397;53.016;-2.260;2023-07-22T03:06:08;13.10;99.90
44671;DHT22;48397;53.016;-2.260;2023-07-22T03:08:37;13.10;99.90
44671;DHT22;48397;53.016;-2.260;2023-07-22T03:11:05;13.10;99.90
44671;DHT22;48397;53.016;-2.260;2023-07-22T03:13:33;13.10;99.90
44671;DHT22;48397;53.016;-2.260;2023-07-22T03:16:03;13.10;99.90
44671;DHT22;48397;53.016;-2.260;2023-07-22T03:18:32;13.00;99.90
44671;DHT22;48397;53.016;-2.260;2023-07-22T03:21:00;13.10;99.90
44671;DHT22;48397;53.016;-2.260;2023-07-22T03:23:27;9.80;99.90
44671;DHT22;48397;53.016;-2.260;2023-07-22T03:25:55;13.10;99.90
44671;DHT22;48397;53.016;-2.260;2023-07-22T03:28:23;13.10;99.90
44671;DHT22;48397;53.016;-2.260;2023-07-22T03:30:50;13.00;99.90
44671;DHT22;48397;53.016;-2.260;2023-07-22T03:33:18;13.00;99.90
44671;DHT22;48397;53.016;-2.260;2023-07-22T03:35:47;13.00;99.90
44671;DHT22;48397;53.016;-2.260;2023-07-22T03:38:14;13.00;99.90
44671;DHT22;48397;53.016;-2.260;2023-07-22T03:43:10;13.10;99.90
44671;DHT22;48397;53.016;-2.260;2023-07-22T03:45:38;13.10;99.90
44671;DHT22;48397;53.016;-2.260;2023-07-22T03:48:06;13.10;99.90
44671;DHT22;48397;53.016;-2.260;2023-07-22T03:50:34;13.10;99.90
44671;DHT22;48397;53.016;-2.260;2023-07-22T03:53:02;13.10;99.90
44671;DHT22;48397;53.016;-2.260;2023-07-22T03:57:58;13.10;99.90
44671;DHT22;48397;53.016;-2.260;2023-07-22T04:00:26;13.10;99.90
44671;DHT22;48397;53.016;-2.260;2023-07-22T04:02:54;13.10;99.90
44671;DHT22;48397;53.016;-2.260;2023-07-22T04:05:21;13.10;99.90
44671;DHT22;48397;53.016;-2.260;2023-07-22T04:07:49;13.10;99.90
44671;DHT22;48397;53.016;-2.260;2023-07-22T04:10:17;13.00;99.90
44671;DHT22;48397;53.016;-2.260;2023-07-22T04:12:46;13.10;99.90
44671;DHT22;48397;53.016;-2.260;2023-07-22T04:15:14;13.10;99.90
44671;DHT22;48397;53.016;-2.260;2023-07-22T04:17:42;13.10;99.90
44671;DHT22;48397;53.016;-2.260;2023-07-22T04:20:10;13.10;99.90
44671;DHT22;48397;53.016;-2.260;2023-07-22T04:22:38;13.10;99.90
44671;DHT22;48397;53.016;-2.260;2023-07-22T04:25:07;13.10;99.90
44671;DHT22;48397;53.016;-2.260;2023-07-22T04:27:36;13.10;99.90
44671;DHT22;48397;53.016;-2.260;2023-07-22T04:30:05;13.20;99.90
44671;DHT22;48397;53.016;-2.260;2023-07-22T04:32:33;13.10;99.90
44671;DHT22;48397;53.016;-2.260;2023-07-22T04:35:01;13.10;99.90
44671;DHT22;48397;53.016;-2.260;2023-07-22T04:37:29;13.20;99.90
44671;DHT22;48397;53.016;-2.260;2023-07-22T04:39:57;13.20;99.90
44671;DHT22;48397;53.016;-2.260;2023-07-22T04:42:26;13.20;99.90
44671;DHT22;48397;53.016;-2.260;2023-07-22T04:44:55;13.20;99.90
44671;DHT22;48397;53.016;-2.260;2023-07-22T04:47:22;13.20;99.90
44671;DHT22;48397;53.016;-2.260;2023-07-22T04:49:50;13.20;99.90
44671;DHT22;48397;53.016;-2.260;2023-07-22T04:52:18;13.20;99.90
44671;DHT22;48397;53.016;-2.260;2023-07-22T04:54:46;13.30;99.90
44671;DHT22;48397;53.016;-2.260;2023-07-22T04:57:14;13.30;99.90
44671;DHT22;48397;53.016;-2.260;2023-07-22T04:59:44;15.70;99.90
44671;DHT22;48397;53.016;-2.260;2023-07-22T05:02:12;13.30;99.90
44671;DHT22;48397;53.016;-2.260;2023-07-22T05:04:40;13.30;99.90
44671;DHT22;48397;53.016;-2.260;2023-07-22T05:07:08;13.30;99.90
44671;DHT22;48397;53.016;-2.260;2023-07-22T05:09:36;13.30;99.90
44671;DHT22;48397;53.016;-2.260;2023-07-22T05:12:05;13.30;99.90
44671;DHT22;48397;53.016;-2.260;2023-07-22T05:14:33;13.40;99.90
44671;DHT22;48397;53.016;-2.260;2023-07-22T05:17:00;13.40;99.90
44671;DHT22;48397;53.016;-2.260;2023-07-22T05:19:28;13.40;99.90
44671;DHT22;48397;53.016;-2.260;2023-07-22T05:21:56;13.40;99.90
44671;DHT22;48397;53.016;-2.260;2023-07-22T05:24:24;13.50;99.90
44671;DHT22;48397;53.016;-2.260;2023-07-22T05:26:52;13.50;99.90
44671;DHT22;48397;53.016;-2.260;2023-07-22T05:29:35;13.50;99.90
44671;DHT22;48397;53.016;-2.260;2023-07-22T05:32:03;13.50;99.90
44671;DHT22;48397;53.016;-2.260;2023-07-22T05:34:37;13.60;99.90
44671;DHT22;48397;53.016;-2.260;2023-07-22T05:37:05;13.60;99.90
44671;DHT22;48397;53.016;-2.260;2023-07-22T05:39:33;13.60;99.90
44671;DHT22;48397;53.016;-2.260;2023-07-22T05:42:01;13.60;99.90
44671;DHT22;48397;53.016;-2.260;2023-07-22T05:44:29;13.60;99.90
44671;DHT22;48397;53.016;-2.260;2023-07-22T05:46:56;13.60;99.90
44671;DHT22;48397;53.016;-2.260;2023-07-22T05:49:24;13.60;99.90
44671;DHT22;48397;53.016;-2.260;2023-07-22T05:51:52;13.60;99.90
44671;DHT22;48397;53.016;-2.260;2023-07-22T05:54:21;13.60;99.90
44671;DHT22;48397;53.016;-2.260;2023-07-22T05:56:49;13.60;99.90
44671;DHT22;48397;53.016;-2.260;2023-07-22T05:59:16;13.60;99.90
44671;DHT22;48397;53.016;-2.260;2023-07-22T06:01:48;13.60;99.90
44671;DHT22;48397;53.016;-2.260;2023-07-22T06:04:16;13.60;99.90
44671;DHT22;48397;53.016;-2.260;2023-07-22T06:06:44;13.60;99.90
44671;DHT22;48397;53.016;-2.260;2023-07-22T06:09:12;13.60;99.90
44671;DHT22;48397;53.016;-2.260;2023-07-22T06:11:39;13.60;99.90
44671;DHT22;48397;53.016;-2.260;2023-07-22T06:14:07;13.60;99.90
44671;DHT22;48397;53.016;-2.260;2023-07-22T06:16:35;13.60;99.90
44671;DHT22;48397;53.016;-2.260;2023-07-22T06:19:04;13.50;99.90
44671;DHT22;48397;53.016;-2.260;2023-07-22T06:21:31;13.50;99.90
44671;DHT22;48397;53.016;-2.260;2023-07-22T06:23:59;13.50;99.90
44671;DHT22;48397;53.016;-2.260;2023-07-22T06:26:27;13.60;99.90
44671;DHT22;48397;53.016;-2.260;2023-07-22T06:28:55;13.60;99.90
44671;DHT22;48397;53.016;-2.260;2023-07-22T06:31:22;13.60;99.90
44671;DHT22;48397;53.016;-2.260;2023-07-22T06:33:50;13.50;99.90
44671;DHT22;48397;53.016;-2.260;2023-07-22T06:36:18;13.60;99.90
44671;DHT22;48397;53.016;-2.260;2023-07-22T06:38:46;13.60;99.90
44671;DHT22;48397;53.016;-2.260;2023-07-22T06:41:13;13.60;99.90
44671;DHT22;48397;53.016;-2.260;2023-07-22T06:43:41;13.60;99.90
44671;DHT22;48397;53.016;-2.260;2023-07-22T06:46:09;13.60;99.90
44671;DHT22;48397;53.016;-2.260;2023-07-22T06:48:37;13.60;99.90
44671;DHT22;48397;53.016;-2.260;2023-07-22T06:51:06;13.70;99.90
44671;DHT22;48397;53.016;-2.260;2023-07-22T06:53:34;13.70;99.90
44671;DHT22;48397;53.016;-2.260;2023-07-22T06:56:02;13.70;99.90
44671;DHT22;48397;53.016;-2.260;2023-07-22T06:58:30;13.70;99.90
44671;DHT22;48397;53.016;-2.260;2023-07-22T07:00:57;13.70;99.90
44671;DHT22;48397;53.016;-2.260;2023-07-22T07:03:25;13.70;99.90
44671;DHT22;48397;53.016;-2.260;2023-07-22T07:05:56;13.70;99.90
44671;DHT22;48397;53.016;-2.260;2023-07-22T07:08:24;13.70;99.90
44671;DHT22;48397;53.016;-2.260;2023-07-22T07:10:52;13.70;99.90
44671;DHT22;48397;53.016;-2.260;2023-07-22T07:13:20;13.70;99.90
44671;DHT22;48397;53.016;-2.260;2023-07-22T07:15:51;13.70;99.90
44671;DHT22;48397;53.016;-2.260;2023-07-22T07:18:19;13.80;99.90
44671;DHT22;48397;53.016;-2.260;2023-07-22T07:20:47;13.80;99.90
44671;DHT22;48397;53.016;-2.260;2023-07-22T07:23:14;13.80;99.90
44671;DHT22;48397;53.016;-2.260;2023-07-22T07:25:44;13.80;99.90
44671;DHT22;48397;53.016;-2.260;2023-07-22T07:28:12;13.80;99.90
44671;DHT22;48397;53.016;-2.260;2023-07-22T07:30:41;13.90;99.90
44671;DHT22;48397;53.016;-2.260;2023-07-22T07:33:10;13.90;99.90
44671;DHT22;48397;53.016;-2.260;2023-07-22T07:35:37;13.80;99.90
44671;DHT22;48397;53.016;-2.260;2023-07-22T07:38:05;13.80;99.90
44671;DHT22;48397;53.016;-2.260;2023-07-22T07:40:33;13.80;99.90
44671;DHT22;48397;53.016;-2.260;2023-07-22T07:43:01;13.80;99.90
44671;DHT22;48397;53.016;-2.260;2023-07-22T07:45:28;13.70;99.90
44671;DHT22;48397;53.016;-2.260;2023-07-22T07:47:56;13.80;99.90
44671;DHT22;48397;53.016;-2.260;2023-07-22T07:50:24;13.80;99.90
44671;DHT22;48397;53.016;-2.260;2023-07-22T07:52:52;13.80;99.90
44671;DHT22;48397;53.016;-2.260;2023-07-22T07:55:20;13.90;99.90
44671;DHT22;48397;53.016;-2.260;2023-07-22T07:57:47;13.90;99.90
44671;DHT22;48397;53.016;-2.260;2023-07-22T08:00:15;13.90;99.90
44671;DHT22;48397;53.016;-2.260;2023-07-22T08:02:44;13.90;99.90
44671;DHT22;48397;53.016;-2.260;2023-07-22T08:05:12;13.90;99.90
44671;DHT22;48397;53.016;-2.260;2023-07-22T08:07:39;13.90;99.90
44671;DHT22;48397;53.016;-2.260;2023-07-22T08:10:07;13.90;99.90
44671;DHT22;48397;53.016;-2.260;2023-07-22T08:12:37;13.90;99.90
44671;DHT22;48397;53.016;-2.260;2023-07-22T08:15:05;13.90;99.90
44671;DHT22;48397;53.016;-2.260;2023-07-22T08:17:33;13.90;99.90
44671;DHT22;48397;53.016;-2.260;2023-07-22T08:20:01;13.90;99.90
44671;DHT22;48397;53.016;-2.260;2023-07-22T08:22:29;13.90;99.90
44671;DHT22;48397;53.016;-2.260;2023-07-22T08:24:56;13.90;99.90
44671;DHT22;48397;53.016;-2.260;2023-07-22T08:27:24;13.90;99.90
44671;DHT22;48397;53.016;-2.260;2023-07-22T08:29:52;13.90;99.90
44671;DHT22;48397;53.016;-2.260;2023-07-22T08:32:20;13.90;99.90
44671;DHT22;48397;53.016;-2.260;2023-07-22T08:34:47;13.90;99.90
44671;DHT22;48397;53.016;-2.260;2023-07-22T08:37:15;13.90;99.90
44671;DHT22;48397;53.016;-2.260;2023-07-22T08:39:43;13.90;99.90
44671;DHT22;48397;53.016;-2.260;2023-07-22T08:42:11;14.00;99.90
44671;DHT22;48397;53.016;-2.260;2023-07-22T08:44:43;14.00;99.90
44671;DHT22;48397;53.016;-2.260;2023-07-22T08:47:16;14.10;99.90
44671;DHT22;48397;53.016;-2.260;2023-07-22T08:49:49;14.10;99.90
44671;DHT22;48397;53.016;-2.260;2023-07-22T08:52:18;14.10;99.90
44671;DHT22;48397;53.016;-2.260;2023-07-22T08:54:47;14.10;99.90
44671;DHT22;48397;53.016;-2.260;2023-07-22T08:57:17;14.20;99.90
44671;DHT22;48397;53.016;-2.260;2023-07-22T08:59:47;14.20;99.90
44671;DHT22;48397;53.016;-2.260;2023-07-22T09:02:15;14.30;99.90
44671;DHT22;48397;53.016;-2.260;2023-07-22T09:04:44;14.40;99.90
44671;DHT22;48397;53.016;-2.260;2023-07-22T09:07:15;15.20;99.90
44671;DHT22;48397;53.016;-2.260;2023-07-22T09:09:45;14.50;99.90
44671;DHT22;48397;53.016;-2.260;2023-07-22T09:12:14;14.50;99.90
44671;DHT22;48397;53.016;-2.260;2023-07-22T09:14:43;14.60;99.90
44671;DHT22;48397;53.016;-2.260;2023-07-22T09:17:11;14.70;99.90
44671;DHT22;48397;53.016;-2.260;2023-07-22T09:19:39;14.60;99.90
44671;DHT22;48397;53.016;-2.260;2023-07-22T09:22:07;14.70;99.90
44671;DHT22;48397;53.016;-2.260;2023-07-22T09:24:35;14.70;99.90
44671;DHT22;48397;53.016;-2.260;2023-07-22T09:27:03;14.70;99.90
44671;DHT22;48397;53.016;-2.260;2023-07-22T09:29:39;14.80;99.90
44671;DHT22;48397;53.016;-2.260;2023-07-22T09:32:07;14.80;99.90
44671;DHT22;48397;53.016;-2.260;2023-07-22T09:34:35;14.80;99.90
44671;DHT22;48397;53.016;-2.260;2023-07-22T09:37:03;14.90;99.90
44671;DHT22;48397;53.016;-2.260;2023-07-22T09:39:31;14.90;99.90
44671;DHT22;48397;53.016;-2.260;2023-07-22T09:41:59;15.10;99.90
44671;DHT22;48397;53.016;-2.260;2023-07-22T09:44:32;15.20;99.90
44671;DHT22;48397;53.016;-2.260;2023-07-22T09:47:06;15.20;99.90
44671;DHT22;48397;53.016;-2.260;2023-07-22T09:49:40;15.30;99.90
44671;DHT22;48397;53.016;-2.260;2023-07-22T09:52:10;15.50;99.90
44671;DHT22;48397;53.016;-2.260;2023-07-22T09:54:47;15.50;99.90
44671;DHT22;48397;53.016;-2.260;2023-07-22T09:57:16;15.60;99.90
44671;DHT22;48397;53.016;-2.260;2023-07-22T09:59:44;15.70;99.90
44671;DHT22;48397;53.016;-2.260;2023-07-22T10:02:14;15.70;99.90
44671;DHT22;48397;53.016;-2.260;2023-07-22T10:04:46;15.80;99.90
44671;DHT22;48397;53.016;-2.260;2023-07-22T10:07:14;15.80;99.90
44671;DHT22;48397;53.016;-2.260;2023-07-22T10:09:43;16.10;99.90
44671;DHT22;48397;53.016;-2.260;2023-07-22T10:12:11;16.00;99.90
44671;DHT22;48397;53.016;-2.260;2023-07-22T10:14:39;16.20;99.90
44671;DHT22;48397;53.016;-2.260;2023-07-22T10:17:10;16.20;99.90
44671;DHT22;48397;53.016;-2.260;2023-07-22T10:19:38;16.20;99.90
44671;DHT22;48397;53.016;-2.260;2023-07-22T10:22:06;16.30;99.90
44671;DHT22;48397;53.016;-2.260;2023-07-22T10:24:39;16.30;99.90
44671;DHT22;48397;53.016;-2.260;2023-07-22T10:27:08;16.30;99.90
44671;DHT22;48397;53.016;-2.260;2023-07-22T10:29:37;16.40;99.90
44671;DHT22;48397;53.016;-2.260;2023-07-22T10:32:06;16.30;99.90
44671;DHT22;48397;53.016;-2.260;2023-07-22T10:34:33;16.40;99.90
44671;DHT22;48397;53.016;-2.260;2023-07-22T10:37:01;16.40;99.90
44671;DHT22;48397;53.016;-2.260;2023-07-22T10:39:29;16.40;99.90
44671;DHT22;48397;53.016;-2.260;2023-07-22T10:42:06;16.30;99.90
44671;DHT22;48397;53.016;-2.260;2023-07-22T10:44:36;16.40;99.90
44671;DHT22;48397;53.016;-2.260;2023-07-22T10:47:05;16.40;99.90
44671;DHT22;48397;53.016;-2.260;2023-07-22T10:49:44;16.50;99.90
44671;DHT22;48397;53.016;-2.260;2023-07-22T10:52:13;16.50;99.90
44671;DHT22;48397;53.016;-2.260;2023-07-22T10:54:48;16.40;99.90
44671;DHT22;48397;53.016;-2.260;2023-07-22T10:59:52;16.40;99.90
44671;DHT22;48397;53.016;-2.260;2023-07-22T11:02:27;16.40;99.90
44671;DHT22;48397;53.016;-2.260;2023-07-22T11:04:58;16.40;99.90
44671;DHT22;48397;53.016;-2.260;2023-07-22T11:07:43;16.40;99.90
44671;DHT22;48397;53.016;-2.260;2023-07-22T11:10:16;16.40;99.90
44671;DHT22;48397;53.016;-2.260;2023-07-22T11:12:46;16.40;99.90
44671;DHT22;48397;53.016;-2.260;2023-07-22T11:15:17;16.40;99.90
44671;DHT22;48397;53.016;-2.260;2023-07-22T11:17:46;16.50;99.90
44671;DHT22;48397;53.016;-2.260;2023-07-22T11:20:14;16.40;99.90
44671;DHT22;48397;53.016;-2.260;2023-07-22T11:22:41;16.50;99.90
44671;DHT22;48397;53.016;-2.260;2023-07-22T11:25:17;16.50;99.90
44671;DHT22;48397;53.016;-2.260;2023-07-22T11:27:45;16.60;99.90
44671;DHT22;48397;53.016;-2.260;2023-07-22T11:30:13;16.60;99.90
44671;DHT22;48397;53.016;-2.260;2023-07-22T11:32:42;16.70;99.90
44671;DHT22;48397;53.016;-2.260;2023-07-22T11:35:11;16.80;99.90
44671;DHT22;48397;53.016;-2.260;2023-07-22T11:37:39;16.90;99.90
44671;DHT22;48397;53.016;-2.260;2023-07-22T11:40:11;17.00;99.90
44671;DHT22;48397;53.016;-2.260;2023-07-22T11:42:39;17.00;99.90
44671;DHT22;48397;53.016;-2.260;2023-07-22T11:45:08;17.00;99.90
44671;DHT22;48397;53.016;-2.260;2023-07-22T11:47:35;17.10;99.90
44671;DHT22;48397;53.016;-2.260;2023-07-22T11:50:04;17.10;99.90
44671;DHT22;48397;53.016;-2.260;2023-07-22T11:52:33;17.10;99.90
44671;DHT22;48397;53.016;-2.260;2023-07-22T11:55:01;17.10;99.90
44671;DHT22;48397;53.016;-2.260;2023-07-22T11:57:31;17.10;99.90
44671;DHT22;48397;53.016;-2.260;2023-07-22T11:59:58;17.00;99.90
